Time;durP1;ratioP1;P1;durP2;ratioP2;P2;SDS_P1;SDS_P2;PMS_P1;PMS_P2;Temp;Humidity;BMP_temperature;BMP_pressure;BME280_temperature;BME280_humidity;BME280_pressure;Samples;Min_cycle;Max_cycle;Signal;HPM_P1;HPM_P2
2022/09/21 00:01:52;;;;;;;;;;;8.60;99.90;;;;;;5070768;28;19948;-84
2022/09/21 00:04:19;;;;;;;;;;;8.60;99.90;;;;;;5092753;28;19932;-84
2022/09/21 00:06:46;;;;;;;;;;;8.60;99.90;;;;;;5087969;28;19931;-84
2022/09/21 00:09:13;;;;;;;;;;;8.60;99.90;;;;;;5071411;28;19933;-86
2022/09/21 00:11:42;;;;;;;;;;;8.70;99.90;;;;;;5070509;28;19924;-84
2022/09/21 00:14:11;;;;;;;;;;;8.70;99.90;;;;;;5068219;28;19930;-85
2022/09/21 00:16:38;;;;;;;;;;;8.70;99.90;;;;;;5068682;28;19939;-84
2022/09/21 00:19:05;;;;;;;;;;;8.70;99.90;;;;;;5066774;28;19982;-84
2022/09/21 00:21:33;;;;;;;;;;;8.70;99.90;;;;;;5091301;28;20012;-83
2022/09/21 00:24:01;;;;;;;;;;;8.70;99.90;;;;;;5066446;28;19928;-82
2022/09/21 00:26:28;;;;;;;;;;;8.70;99.90;;;;;;5060649;28;19935;-83
2022/09/21 00:28:58;;;;;;;;;;;8.80;99.90;;;;;;5075375;28;19963;-83
2022/09/21 00:31:25;;;;;;;;;;;8.80;99.90;;;;;;5072250;28;19950;-81
2022/09/21 00:33:52;;;;;;;;;;;8.80;99.90;;;;;;5069394;28;20007;-81
2022/09/21 00:36:20;;;;;;;;;;;8.80;99.90;;;;;;5073744;28;19928;-81
2022/09/21 00:38:49;;;;;;;;;;;9.00;99.90;;;;;;5075950;28;20255;-82
2022/09/21 00:41:16;;;;;;;;;;;9.00;99.90;;;;;;5075881;28;20383;-82
2022/09/21 00:43:45;;;;;;;;;;;9.10;99.90;;;;;;5089813;28;19932;-82
2022/09/21 00:46:15;;;;;;;;;;;9.10;99.90;;;;;;5075779;28;19924;-81
2022/09/21 00:48:44;;;;;;;;;;;9.10;99.90;;;;;;5075463;28;20001;-82
2022/09/21 00:51:11;;;;;;;;;;;9.20;99.90;;;;;;5076067;28;19989;-82
2022/09/21 00:53:38;;;;;;;;;;;9.20;99.90;;;;;;5075995;28;19932;-82
2022/09/21 00:56:06;;;;;;;;;;;9.20;99.90;;;;;;5077261;28;20359;-82
2022/09/21 00:58:37;;;;;;;;;;;9.30;99.90;;;;;;5076038;28;19977;-82
2022/09/21 01:01:03;;;;;;;;;;;9.30;99.90;;;;;;5076599;28;20281;-82
2022/09/21 01:03:32;;;;;;;;;;;9.40;99.90;;;;;;5074674;28;19928;-81
2022/09/21 01:05:59;;;;;;;;;;;9.40;99.90;;;;;;5075117;28;20367;-81
2022/09/21 01:08:27;;;;;;;;;;;9.40;99.90;;;;;;5075562;28;19932;-81
2022/09/21 01:11:07;;;;;;;;;;;9.40;99.90;;;;;;5076398;28;19928;-80
2022/09/21 01:13:37;;;;;;;;;;;9.40;99.90;;;;;;5074844;28;19975;-81
2022/09/21 01:16:07;;;;;;;;;;;9.40;99.90;;;;;;5074891;28;20429;-81
2022/09/21 01:18:38;;;;;;;;;;;9.50;99.90;;;;;;5074732;28;20428;-81
2022/09/21 01:21:18;;;;;;;;;;;9.30;99.90;;;;;;5076360;28;19928;-81
2022/09/21 01:24:13;;;;;;;;;;;9.30;99.90;;;;;;5075312;28;20330;-80
2022/09/21 01:26:48;;;;;;;;;;;9.30;99.90;;;;;;5075191;28;21362;-81
2022/09/21 01:29:20;;;;;;;;;;;9.30;99.90;;;;;;5075032;28;19924;-81
2022/09/21 01:31:51;;;;;;;;;;;9.20;99.90;;;;;;5074040;28;19982;-80
2022/09/21 01:34:26;;;;;;;;;;;9.20;99.90;;;;;;5076553;28;19927;-81
2022/09/21 01:36:58;;;;;;;;;;;9.20;99.90;;;;;;5078272;28;19964;-81
2022/09/21 01:39:25;;;;;;;;;;;9.10;99.90;;;;;;5078108;28;19993;-81
2022/09/21 01:41:53;;;;;;;;;;;9.10;99.90;;;;;;5078718;28;20407;-81
2022/09/21 01:44:23;;;;;;;;;;;9.00;99.90;;;;;;5063860;28;19982;-82
2022/09/21 01:46:50;;;;;;;;;;;9.00;99.90;;;;;;5060379;28;19936;-80
2022/09/21 01:49:20;;;;;;;;;;;8.90;99.90;;;;;;5079164;28;19924;-81
2022/09/21 01:51:50;;;;;;;;;;;8.90;99.90;;;;;;5079384;28;19928;-82
2022/09/21 01:54:20;;;;;;;;;;;8.80;99.90;;;;;;5079162;28;19924;-81
2022/09/21 01:56:50;;;;;;;;;;;8.70;99.90;;;;;;5078065;28;19992;-81
2022/09/21 01:59:20;;;;;;;;;;;8.70;99.90;;;;;;5078704;28;20581;-82
2022/09/21 02:01:51;;;;;;;;;;;8.60;99.90;;;;;;5080911;28;19928;-83
2022/09/21 02:04:19;;;;;;;;;;;8.60;99.90;;;;;;5078045;28;19968;-82
2022/09/21 02:06:47;;;;;;;;;;;8.60;99.90;;;;;;5071348;28;20062;-83
2022/09/21 02:09:14;;;;;;;;;;;8.50;99.90;;;;;;5075149;28;19935;-82
2022/09/21 02:11:44;;;;;;;;;;;8.50;99.90;;;;;;5080615;28;19954;-82
2022/09/21 02:14:17;;;;;;;;;;;8.50;99.90;;;;;;5079277;28;20014;-82
2022/09/21 02:16:47;;;;;;;;;;;8.50;99.90;;;;;;5079046;28;19924;-82
2022/09/21 02:19:20;;;;;;;;;;;8.50;99.90;;;;;;5075971;28;20006;-83
2022/09/21 02:21:56;;;;;;;;;;;8.40;99.90;;;;;;5073914;28;19939;-83
2022/09/21 02:24:25;;;;;;;;;;;8.40;99.90;;;;;;5093077;28;19924;-82
2022/09/21 02:26:55;;;;;;;;;;;8.30;99.90;;;;;;5073463;28;19952;-82
2022/09/21 02:29:25;;;;;;;;;;;8.30;99.90;;;;;;5074138;28;19931;-83
2022/09/21 02:31:54;;;;;;;;;;;8.30;99.90;;;;;;5087033;28;20827;-82
2022/09/21 02:34:26;;;;;;;;;;;8.20;99.90;;;;;;5092112;28;19935;-83
2022/09/21 02:36:55;;;;;;;;;;;8.10;99.90;;;;;;5073148;28;19928;-83
2022/09/21 02:39:28;;;;;;;;;;;8.10;99.90;;;;;;5072434;28;20427;-83
2022/09/21 02:42:01;;;;;;;;;;;8.10;99.90;;;;;;5071483;28;20616;-83
2022/09/21 02:44:32;;;;;;;;;;;8.10;99.90;;;;;;5091123;28;19928;-84
2022/09/21 02:47:01;;;;;;;;;;;8.00;99.90;;;;;;5074003;28;19924;-85
2022/09/21 02:49:31;;;;;;;;;;;8.00;99.90;;;;;;5073417;28;19932;-83
2022/09/21 02:51:59;;;;;;;;;;;8.00;99.90;;;;;;5074887;28;19924;-83
2022/09/21 02:54:29;;;;;;;;;;;8.00;99.90;;;;;;5076638;28;19993;-82
2022/09/21 02:56:59;;;;;;;;;;;7.90;99.90;;;;;;5097847;28;20022;-82
2022/09/21 02:59:26;;;;;;;;;;;7.90;99.90;;;;;;5077834;28;19927;-82
2022/09/21 03:01:54;;;;;;;;;;;7.90;99.90;;;;;;5077531;28;19928;-82
2022/09/21 03:04:22;;;;;;;;;;;7.90;99.90;;;;;;5077793;28;20010;-82
2022/09/21 03:06:50;;;;;;;;;;;7.80;99.90;;;;;;5093775;28;19935;-81
2022/09/21 03:09:17;;;;;;;;;;;7.80;99.90;;;;;;5095022;28;19928;-81
2022/09/21 03:11:45;;;;;;;;;;;7.70;99.90;;;;;;5078969;28;20384;-80
2022/09/21 03:14:19;;;;;;;;;;;7.70;99.90;;;;;;5073585;28;19924;-81
2022/09/21 03:16:46;;;;;;;;;;;7.70;99.90;;;;;;5062765;28;19928;-82
2022/09/21 03:19:13;;;;;;;;;;;7.60;99.90;;;;;;5094690;28;20387;-81
2022/09/21 03:21:40;;;;;;;;;;;7.60;99.90;;;;;;5076682;28;19928;-82
2022/09/21 03:24:08;;;;;;;;;;;7.60;99.90;;;;;;5082366;28;19930;-80
2022/09/21 03:26:38;;;;;;;;;;;7.60;99.90;;;;;;5076488;28;19924;-80
2022/09/21 03:29:05;;;;;;;;;;;7.50;99.90;;;;;;5094304;28;19924;-80
2022/09/21 03:31:33;;;;;;;;;;;7.50;99.90;;;;;;5075399;28;20409;-78
2022/09/21 03:34:00;;;;;;;;;;;7.50;99.90;;;;;;5062059;28;19928;-82
2022/09/21 03:36:27;;;;;;;;;;;7.50;99.90;;;;;;5056903;28;19928;-81
2022/09/21 03:38:54;;;;;;;;;;;7.40;99.90;;;;;;5057225;28;20022;-82
2022/09/21 03:41:22;;;;;;;;;;;7.40;99.90;;;;;;5075384;28;19928;-82
2022/09/21 03:43:49;;;;;;;;;;;7.30;99.90;;;;;;5056781;28;19931;-82
2022/09/21 03:46:16;;;;;;;;;;;7.30;99.90;;;;;;5057185;28;20386;-81
2022/09/21 03:48:46;;;;;;;;;;;7.30;99.90;;;;;;5057649;28;20406;-81
2022/09/21 03:51:13;;;;;;;;;;;7.20;99.90;;;;;;5059761;28;19924;-80
2022/09/21 03:53:40;;;;;;;;;;;7.20;99.90;;;;;;5093771;28;19935;-84
2022/09/21 03:56:07;;;;;;;;;;;7.20;99.90;;;;;;5075677;28;19993;-81
2022/09/21 03:58:35;;;;;;;;;;;7.20;99.90;;;;;;5077627;28;19924;-81
2022/09/21 04:01:02;;;;;;;;;;;7.10;99.90;;;;;;5078212;28;20399;-82
2022/09/21 04:03:30;;;;;;;;;;;7.10;99.90;;;;;;5077359;28;19924;-81
2022/09/21 04:05:56;;;;;;;;;;;8.30;99.90;;;;;;5077627;28;19938;-81
2022/09/21 04:08:23;;;;;;;;;;;7.00;99.90;;;;;;5076110;28;19924;-81
2022/09/21 04:10:50;;;;;;;;;;;7.00;99.90;;;;;;5076773;28;19997;-84
2022/09/21 04:13:17;;;;;;;;;;;7.00;99.90;;;;;;5075544;28;19924;-82
2022/09/21 04:15:46;;;;;;;;;;;6.90;99.90;;;;;;5077305;28;19924;-81
2022/09/21 04:18:13;;;;;;;;;;;6.90;99.90;;;;;;5076961;28;19928;-84
2022/09/21 04:20:40;;;;;;;;;;;6.90;99.90;;;;;;5076562;28;19924;-81
2022/09/21 04:23:13;;;;;;;;;;;6.90;99.90;;;;;;5075276;28;19939;-82
2022/09/21 04:25:40;;;;;;;;;;;6.90;99.90;;;;;;5071205;28;20054;-84
2022/09/21 04:28:07;;;;;;;;;;;6.80;99.90;;;;;;5070312;28;19938;-84
2022/09/21 04:30:35;;;;;;;;;;;6.70;99.90;;;;;;5091234;28;19951;-83
2022/09/21 04:33:03;;;;;;;;;;;6.70;99.90;;;;;;5072708;28;19928;-84
2022/09/21 04:35:30;;;;;;;;;;;6.70;99.90;;;;;;5070335;28;20010;-83
2022/09/21 04:37:57;;;;;;;;;;;6.60;99.90;;;;;;5070935;28;19950;-82
2022/09/21 04:40:23;;;;;;;;;;;6.60;99.90;;;;;;5071927;28;19957;-82
2022/09/21 04:42:51;;;;;;;;;;;6.60;99.90;;;;;;5070118;28;20314;-81
2022/09/21 04:45:18;;;;;;;;;;;6.60;99.90;;;;;;5069665;28;20307;-82
2022/09/21 04:47:45;;;;;;;;;;;6.60;99.90;;;;;;5087605;28;20005;-82
2022/09/21 04:50:13;;;;;;;;;;;6.60;99.90;;;;;;5084988;28;20081;-82
2022/09/21 04:52:40;;;;;;;;;;;6.60;99.90;;;;;;5062716;28;20011;-82
2022/09/21 04:55:07;;;;;;;;;;;6.60;99.90;;;;;;5070851;28;20406;-81
2022/09/21 04:57:35;;;;;;;;;;;6.60;99.90;;;;;;5082589;28;19939;-81
2022/09/21 05:00:02;;;;;;;;;;;6.60;99.90;;;;;;5065419;28;20118;-82
2022/09/21 05:02:29;;;;;;;;;;;6.70;99.90;;;;;;5065129;28;19950;-82
2022/09/21 05:04:56;;;;;;;;;;;6.60;99.90;;;;;;5083938;28;19940;-82
2022/09/21 05:07:24;;;;;;;;;;;6.60;99.90;;;;;;5067183;28;20034;-82
2022/09/21 05:10:02;;;;;;;;;;;6.60;99.90;;;;;;5067733;28;19928;-82
2022/09/21 05:12:30;;;;;;;;;;;6.60;99.90;;;;;;5070490;28;20057;-82
2022/09/21 05:14:56;;;;;;;;;;;6.60;99.90;;;;;;5069812;28;19978;-82
2022/09/21 05:17:24;;;;;;;;;;;6.60;99.90;;;;;;5069727;28;19928;-81
2022/09/21 05:19:52;;;;;;;;;;;6.60;99.90;;;;;;5072078;28;19982;-80
2022/09/21 05:22:19;;;;;;;;;;;6.60;99.90;;;;;;5074281;28;19928;-80
2022/09/21 05:24:47;;;;;;;;;;;6.60;99.90;;;;;;5072502;28;20399;-81
2022/09/21 05:27:14;;;;;;;;;;;6.60;99.90;;;;;;5073969;28;20013;-80
2022/09/21 05:29:42;;;;;;;;;;;6.60;99.90;;;;;;5074258;28;19924;-80
2022/09/21 05:32:13;;;;;;;;;;;6.60;99.90;;;;;;5092362;28;19979;-80
2022/09/21 05:34:45;;;;;;;;;;;6.60;99.90;;;;;;5093334;28;20075;-79
2022/09/21 05:37:21;;;;;;;;;;;6.60;99.90;;;;;;5074721;28;19932;-80
2022/09/21 05:39:49;;;;;;;;;;;6.70;99.90;;;;;;5073929;28;19932;-80
2022/09/21 05:42:16;;;;;;;;;;;6.80;99.90;;;;;;5071938;28;19939;-80
2022/09/21 05:44:44;;;;;;;;;;;6.80;99.90;;;;;;5072666;28;19969;-80
2022/09/21 05:47:18;;;;;;;;;;;6.80;99.90;;;;;;5072866;28;19967;-80
2022/09/21 05:49:48;;;;;;;;;;;6.90;99.90;;;;;;5070988;28;19937;-81
2022/09/21 05:52:19;;;;;;;;;;;7.00;99.90;;;;;;5071519;28;19936;-81
2022/09/21 05:54:52;;;;;;;;;;;7.00;99.90;;;;;;5085105;28;20391;-80
2022/09/21 05:57:23;;;;;;;;;;;7.20;99.90;;;;;;5066432;28;20043;-80
2022/09/21 05:59:54;;;;;;;;;;;7.20;99.90;;;;;;5067643;28;19943;-79
2022/09/21 06:02:26;;;;;;;;;;;7.30;99.90;;;;;;5064285;28;19954;-80
2022/09/21 06:04:55;;;;;;;;;;;7.50;99.90;;;;;;5066813;28;19946;-80
2022/09/21 06:07:22;;;;;;;;;;;7.60;99.90;;;;;;5081323;28;19936;-80
2022/09/21 06:09:51;;;;;;;;;;;8.20;99.90;;;;;;5077398;28;19924;-81
2022/09/21 06:12:19;;;;;;;;;;;8.20;99.90;;;;;;5079727;28;19947;-81
2022/09/21 06:14:46;;;;;;;;;;;8.80;99.90;;;;;;5098550;28;19924;-81
2022/09/21 06:17:13;;;;;;;;;;;9.60;99.90;;;;;;5079805;28;19936;-80
2022/09/21 06:19:40;;;;;;;;;;;10.60;99.90;;;;;;5077717;28;20036;-81
2022/09/21 06:22:07;;;;;;;;;;;12.60;99.90;;;;;;5080014;28;19928;-81
2022/09/21 06:24:34;;;;;;;;;;;13.50;99.90;;;;;;5078662;28;20006;-81
2022/09/21 06:27:04;;;;;;;;;;;13.50;99.90;;;;;;5096940;28;19928;-83
2022/09/21 06:29:31;;;;;;;;;;;14.40;99.90;;;;;;5078866;28;20315;-82
2022/09/21 06:31:58;;;;;;;;;;;16.00;99.90;;;;;;5078938;28;20359;-82
2022/09/21 06:34:25;;;;;;;;;;;16.00;99.90;;;;;;5079984;28;20307;-83
2022/09/21 06:36:52;;;;;;;;;;;16.80;99.90;;;;;;5079919;28;19924;-81
2022/09/21 06:39:19;;;;;;;;;;;17.40;99.90;;;;;;5079986;28;19928;-83
2022/09/21 06:41:46;;;;;;;;;;;17.90;99.90;;;;;;5097652;28;19928;-82
2022/09/21 06:44:14;;;;;;;;;;;18.40;99.90;;;;;;5079542;28;19958;-83
2022/09/21 06:46:42;;;;;;;;;;;18.80;99.90;;;;;;5079344;28;19970;-82
2022/09/21 06:49:10;;;;;;;;;;;19.20;99.90;;;;;;5077619;28;19931;-82
2022/09/21 06:51:37;;;;;;;;;;;19.60;99.90;;;;;;5078784;28;19978;-82
2022/09/21 06:54:04;;;;;;;;;;;19.90;99.90;;;;;;5085081;28;19970;-82
2022/09/21 06:56:32;;;;;;;;;;;20.10;99.90;;;;;;5059501;28;19940;-82
2022/09/21 06:58:58;;;;;;;;;;;20.40;99.90;;;;;;5081576;28;19924;-82
2022/09/21 07:01:27;;;;;;;;;;;20.80;99.90;;;;;;5083174;28;19928;-82
2022/09/21 07:03:53;;;;;;;;;;;21.00;99.90;;;;;;5078854;28;19932;-83
2022/09/21 07:06:21;;;;;;;;;;;21.20;99.90;;;;;;5079780;28;19924;-83
2022/09/21 07:08:48;;;;;;;;;;;21.50;99.90;;;;;;5096524;28;20360;-83
2022/09/21 07:11:15;;;;;;;;;;;21.70;99.90;;;;;;5078262;28;19928;-83
2022/09/21 07:13:42;;;;;;;;;;;21.80;99.90;;;;;;5078798;28;20005;-83
2022/09/21 07:16:09;;;;;;;;;;;21.90;99.90;;;;;;5097231;28;20384;-83
2022/09/21 07:18:39;;;;;;;;;;;22.00;99.90;;;;;;5078225;28;20013;-83
2022/09/21 07:21:06;;;;;;;;;;;22.00;99.90;;;;;;5078438;28;19928;-84
2022/09/21 07:23:33;;;;;;;;;;;22.00;99.90;;;;;;5063630;28;20509;-83
2022/09/21 07:26:01;;;;;;;;;;;20.80;99.90;;;;;;5077719;28;19928;-83
2022/09/21 07:28:31;;;;;;;;;;;22.00;99.90;;;;;;5081288;28;19928;-83
2022/09/21 07:30:58;;;;;;;;;;;22.00;99.90;;;;;;5082946;28;19928;-84
2022/09/21 07:33:32;;;;;;;;;;;22.20;99.90;;;;;;5070300;28;19975;-84
2022/09/21 07:36:12;;;;;;;;;;;22.30;99.90;;;;;;5082829;28;20307;-84
2022/09/21 07:38:41;;;;;;;;;;;22.40;99.90;;;;;;5083956;28;20638;-83
2022/09/21 07:41:26;;;;;;;;;;;22.40;99.90;;;;;;5065789;28;19925;-82
2022/09/21 07:43:54;;;;;;;;;;;22.30;99.90;;;;;;5061947;28;19974;-82
2022/09/21 07:46:21;;;;;;;;;;;22.20;99.90;;;;;;5074738;28;20375;-82
2022/09/21 07:48:48;;;;;;;;;;;22.20;99.90;;;;;;5079769;28;19961;-82
2022/09/21 07:51:16;;;;;;;;;;;22.20;99.90;;;;;;5081353;28;19924;-82
2022/09/21 07:53:44;;;;;;;;;;;22.20;99.90;;;;;;5082180;28;19931;-82
2022/09/21 07:56:11;;;;;;;;;;;22.50;99.90;;;;;;5083003;28;19932;-82
2022/09/21 08:01:24;;;;;;;;;;;;;;;;;;5076636;28;19928;-82
2022/09/21 08:03:51;;;;;;;;;;;22.90;99.90;;;;;;5082281;28;19928;-83
2022/09/21 08:06:19;;;;;;;;;;;22.90;99.90;;;;;;5097170;28;20415;-82
2022/09/21 08:08:50;;;;;;;;;;;22.90;99.90;;;;;;5070452;28;19924;-82
2022/09/21 08:11:17;;;;;;;;;;;22.80;99.90;;;;;;5079272;28;19989;-82
2022/09/21 08:13:44;;;;;;;;;;;22.70;99.90;;;;;;5080291;28;20318;-82
2022/09/21 08:16:11;;;;;;;;;;;22.50;99.90;;;;;;5078894;28;19928;-82
2022/09/21 08:18:39;;;;;;;;;;;22.40;99.90;;;;;;5078830;28;20245;-82
2022/09/21 08:21:07;;;;;;;;;;;22.30;99.90;;;;;;5071786;28;19999;-82
2022/09/21 08:23:39;;;;;;;;;;;22.10;99.90;;;;;;5078267;28;20311;-82
2022/09/21 08:26:07;;;;;;;;;;;22.10;99.90;;;;;;5076629;28;19931;-83
2022/09/21 08:28:41;;;;;;;;;;;22.10;99.90;;;;;;5087316;28;20314;-83
2022/09/21 08:31:09;;;;;;;;;;;22.00;99.90;;;;;;5073639;28;19924;-83
2022/09/21 08:33:36;;;;;;;;;;;21.80;99.90;;;;;;5075927;28;19924;-83
2022/09/21 08:36:04;;;;;;;;;;;21.40;99.90;;;;;;5077074;28;19970;-82
2022/09/21 08:38:36;;;;;;;;;;;20.70;99.90;;;;;;5075763;28;20546;-83
2022/09/21 08:41:15;;;;;;;;;;;20.50;99.90;;;;;;5089561;28;20136;-82
2022/09/21 08:43:42;;;;;;;;;;;20.30;99.90;;;;;;5067653;28;20299;-83
2022/09/21 08:46:11;;;;;;;;;;;20.20;99.90;;;;;;5083184;28;19924;-82
2022/09/21 08:48:40;;;;;;;;;;;20.50;99.90;;;;;;5074603;28;20023;-83
2022/09/21 08:51:09;;;;;;;;;;;20.60;99.90;;;;;;5075953;28;19946;-83
2022/09/21 08:53:38;;;;;;;;;;;20.70;99.90;;;;;;5066704;28;19928;-82
2022/09/21 08:56:06;;;;;;;;;;;20.80;99.90;;;;;;5080491;28;19928;-82
2022/09/21 08:58:33;;;;;;;;;;;20.90;99.90;;;;;;5094136;28;19963;-82
2022/09/21 09:01:15;;;;;;;;;;;21.00;99.90;;;;;;5078864;28;19924;-82
2022/09/21 09:03:54;;;;;;;;;;;21.00;99.90;;;;;;5078671;28;19955;-82
2022/09/21 09:06:24;;;;;;;;;;;21.00;99.90;;;;;;5079091;28;19927;-82
2022/09/21 09:08:59;;;;;;;;;;;21.00;99.90;;;;;;5093993;28;19928;-83
2022/09/21 09:11:37;;;;;;;;;;;20.90;99.90;;;;;;5075189;28;19940;-82
2022/09/21 09:14:14;;;;;;;;;;;20.70;99.90;;;;;;5077388;28;20081;-82
2022/09/21 09:16:49;;;;;;;;;;;20.50;99.90;;;;;;5062824;28;19924;-82
2022/09/21 09:19:20;;;;;;;;;;;20.30;99.90;;;;;;5081625;28;19928;-82
2022/09/21 09:21:47;;;;;;;;;;;19.90;99.90;;;;;;5064182;28;20411;-82
2022/09/21 09:24:18;;;;;;;;;;;19.40;99.90;;;;;;5095206;28;20448;-83
2022/09/21 09:26:47;;;;;;;;;;;18.70;99.90;;;;;;5079162;28;20387;-83
2022/09/21 09:29:18;;;;;;;;;;;18.60;99.90;;;;;;5071829;28;20011;-83
2022/09/21 09:31:46;;;;;;;;;;;18.40;99.90;;;;;;5096295;28;19924;-83
2022/09/21 09:34:15;;;;;;;;;;;18.20;99.90;;;;;;5064937;28;19929;-83
2022/09/21 09:36:46;;;;;;;;;;;18.00;99.90;;;;;;5068719;28;20271;-81
2022/09/21 09:39:13;;;;;;;;;;;17.80;99.90;;;;;;5078489;28;19928;-82
2022/09/21 09:42:01;;;;;;;;;;;17.60;99.90;;;;;;5095806;28;19928;-82
2022/09/21 09:44:45;;;;;;;;;;;17.50;99.90;;;;;;5070644;28;20445;-81
2022/09/21 09:47:20;;;;;;;;;;;17.40;99.90;;;;;;5097429;28;20385;-81
2022/09/21 09:49:53;;;;;;;;;;;17.30;99.90;;;;;;5087146;28;19925;-83
2022/09/21 09:52:21;;;;;;;;;;;17.30;99.90;;;;;;5079784;28;19928;-82
2022/09/21 09:54:48;;;;;;;;;;;17.30;99.90;;;;;;5069920;28;19924;-83
2022/09/21 09:57:15;;;;;;;;;;;17.40;99.90;;;;;;5061587;28;19998;-82
2022/09/21 09:59:46;;;;;;;;;;;17.40;99.90;;;;;;5090896;28;19978;-82
2022/09/21 10:02:19;;;;;;;;;;;17.40;99.90;;;;;;5068474;28;19924;-82
2022/09/21 10:04:54;;;;;;;;;;;17.40;99.90;;;;;;5080004;28;20418;-82
2022/09/21 10:07:33;;;;;;;;;;;17.60;99.90;;;;;;5093094;28;19925;-82
2022/09/21 10:10:00;;;;;;;;;;;17.50;99.90;;;;;;5069143;28;19978;-81
2022/09/21 10:12:28;;;;;;;;;;;17.70;99.90;;;;;;5064122;28;19966;-83
2022/09/21 10:15:00;;;;;;;;;;;17.70;99.90;;;;;;5082556;28;20000;-84
2022/09/21 10:17:27;;;;;;;;;;;17.70;99.90;;;;;;5101423;28;20459;-83
2022/09/21 10:20:01;;;;;;;;;;;17.70;99.90;;;;;;5083043;28;19987;-83
2022/09/21 10:22:28;;;;;;;;;;;17.80;99.90;;;;;;5102343;28;19981;-82
2022/09/21 10:24:57;;;;;;;;;;;18.00;99.90;;;;;;5083206;28;19932;-83
2022/09/21 10:27:26;;;;;;;;;;;18.30;99.90;;;;;;5078023;28;19932;-81
2022/09/21 10:29:53;;;;;;;;;;;18.40;99.90;;;;;;5084305;28;19936;-83
2022/09/21 10:32:24;;;;;;;;;;;18.50;99.90;;;;;;5077524;28;19932;-83
2022/09/21 10:35:01;;;;;;;;;;;18.60;99.90;;;;;;5084727;28;19928;-84
2022/09/21 10:37:29;;;;;;;;;;;18.60;99.90;;;;;;5085359;28;19927;-83
2022/09/21 10:39:57;;;;;;;;;;;18.60;99.90;;;;;;5067277;28;20546;-84
2022/09/21 10:42:24;;;;;;;;;;;18.60;99.90;;;;;;5070502;28;19932;-82
2022/09/21 10:44:52;;;;;;;;;;;18.80;99.90;;;;;;5059784;28;19916;-83
2022/09/21 10:47:21;;;;;;;;;;;19.00;99.90;;;;;;5071566;28;19931;-82
2022/09/21 10:49:52;;;;;;;;;;;19.10;99.90;;;;;;5069178;28;20036;-83
2022/09/21 10:52:22;;;;;;;;;;;19.10;99.90;;;;;;5077462;28;20156;-83
2022/09/21 10:54:51;;;;;;;;;;;19.20;99.90;;;;;;5066137;28;19932;-82
2022/09/21 10:57:19;;;;;;;;;;;19.30;99.90;;;;;;5077905;28;19963;-83
2022/09/21 10:59:46;;;;;;;;;;;19.40;99.90;;;;;;5076996;28;20387;-83
2022/09/21 11:02:28;;;;;;;;;;;19.30;99.90;;;;;;5083223;28;20311;-83
2022/09/21 11:04:59;;;;;;;;;;;19.30;99.90;;;;;;5068973;28;20023;-84
2022/09/21 11:07:30;;;;;;;;;;;19.20;99.90;;;;;;5074312;28;19936;-84
2022/09/21 11:09:59;;;;;;;;;;;19.10;99.90;;;;;;5078266;28;19928;-84
2022/09/21 11:12:43;;;;;;;;;;;19.00;99.90;;;;;;5073741;28;19928;-83
2022/09/21 11:15:14;;;;;;;;;;;19.10;99.90;;;;;;5070691;28;19929;-83
2022/09/21 11:17:43;;;;;;;;;;;19.20;99.90;;;;;;5056245;28;20606;-83
2022/09/21 11:20:19;;;;;;;;;;;19.20;99.90;;;;;;5071056;28;19981;-84
2022/09/21 11:22:52;;;;;;;;;;;19.20;99.90;;;;;;5063890;28;19932;-83
2022/09/21 11:25:27;;;;;;;;;;;19.10;99.90;;;;;;5076067;28;19987;-83
2022/09/21 11:27:56;;;;;;;;;;;19.00;99.90;;;;;;5074666;28;19929;-83
2022/09/21 11:30:23;;;;;;;;;;;18.50;99.90;;;;;;5056963;28;19995;-83
2022/09/21 11:33:08;;;;;;;;;;;18.60;99.90;;;;;;5058755;28;19928;-83
2022/09/21 11:35:40;;;;;;;;;;;18.30;99.90;;;;;;5057702;28;20183;-83
2022/09/21 11:38:12;;;;;;;;;;;18.20;99.90;;;;;;5055997;28;20391;-83
2022/09/21 11:40:54;;;;;;;;;;;18.10;99.90;;;;;;5056053;28;20368;-82
2022/09/21 11:43:27;;;;;;;;;;;18.10;99.90;;;;;;5069630;28;19980;-83
2022/09/21 11:46:05;;;;;;;;;;;18.10;99.90;;;;;;5066881;28;19932;-82
2022/09/21 11:48:41;;;;;;;;;;;18.00;99.90;;;;;;5071132;28;19929;-83
2022/09/21 11:51:15;;;;;;;;;;;18.00;99.90;;;;;;5067337;28;19958;-82
2022/09/21 11:53:48;;;;;;;;;;;18.10;99.90;;;;;;5076460;28;19928;-83
2022/09/21 11:56:33;;;;;;;;;;;18.30;99.90;;;;;;5076781;28;19924;-83
2022/09/21 11:59:05;;;;;;;;;;;18.50;99.90;;;;;;5077245;28;19928;-82
2022/09/21 12:01:47;;;;;;;;;;;18.50;99.90;;;;;;5078046;28;19932;-83
2022/09/21 12:04:28;;;;;;;;;;;18.30;99.90;;;;;;5067851;28;20431;-82
2022/09/21 12:07:02;;;;;;;;;;;18.30;99.90;;;;;;5055830;28;19932;-83
2022/09/21 12:09:42;;;;;;;;;;;18.20;99.90;;;;;;5055094;28;20005;-83
2022/09/21 12:12:11;;;;;;;;;;;18.10;99.90;;;;;;5057607;28;19930;-83
2022/09/21 12:14:42;;;;;;;;;;;18.10;99.90;;;;;;5064100;28;19924;-83
2022/09/21 12:17:13;;;;;;;;;;;18.20;99.90;;;;;;5062855;28;19951;-83
2022/09/21 12:19:43;;;;;;;;;;;18.60;99.90;;;;;;5076148;28;20015;-83
2022/09/21 12:22:13;;;;;;;;;;;19.10;99.90;;;;;;5077005;28;19924;-83
2022/09/21 12:24:44;;;;;;;;;;;20.10;99.90;;;;;;5078386;28;20622;-83
2022/09/21 12:27:14;;;;;;;;;;;20.10;99.90;;;;;;5073123;28;19924;-81
2022/09/21 12:29:46;;;;;;;;;;;20.60;99.90;;;;;;5064797;28;19928;-82
2022/09/21 12:32:18;;;;;;;;;;;20.80;99.90;;;;;;5055409;28;20277;-82
2022/09/21 12:34:47;;;;;;;;;;;20.90;99.90;;;;;;5054584;28;19928;-82
2022/09/21 12:37:18;;;;;;;;;;;20.90;99.90;;;;;;5054679;28;19936;-81
2022/09/21 12:39:48;;;;;;;;;;;20.90;99.90;;;;;;5056769;28;20711;-83
2022/09/21 12:42:22;;;;;;;;;;;21.00;99.90;;;;;;5074234;28;19928;-83
2022/09/21 12:44:52;;;;;;;;;;;20.90;99.90;;;;;;5058816;28;19992;-83
2022/09/21 12:47:22;;;;;;;;;;;21.00;99.90;;;;;;5075750;28;19924;-83
2022/09/21 12:49:56;;;;;;;;;;;21.00;99.90;;;;;;5075866;28;19939;-83
2022/09/21 12:52:26;;;;;;;;;;;21.10;99.90;;;;;;5096350;28;20027;-83
2022/09/21 12:54:57;;;;;;;;;;;21.10;99.90;;;;;;5076877;28;19931;-81
2022/09/21 12:57:30;;;;;;;;;;;21.20;99.90;;;;;;5094078;28;19928;-83
2022/09/21 13:00:01;;;;;;;;;;;21.20;99.90;;;;;;5090396;28;19928;-83
2022/09/21 13:02:33;;;;;;;;;;;21.40;99.90;;;;;;5074243;28;19935;-83
2022/09/21 13:05:04;;;;;;;;;;;21.50;99.90;;;;;;5078273;28;19970;-83
2022/09/21 13:07:56;;;;;;;;;;;21.50;99.90;;;;;;5080362;28;19924;-79
2022/09/21 13:10:38;;;;;;;;;;;21.50;99.90;;;;;;5077621;28;19924;-81
2022/09/21 13:13:07;;;;;;;;;;;21.60;99.90;;;;;;5075583;28;20018;-81
2022/09/21 13:15:41;;;;;;;;;;;21.70;99.90;;;;;;5067937;28;20108;-81
2022/09/21 13:18:17;;;;;;;;;;;21.90;99.90;;;;;;5054648;28;19929;-81
2022/09/21 13:20:43;;;;;;;;;;;21.90;99.90;;;;;;5054189;28;19925;-82
2022/09/21 13:23:16;;;;;;;;;;;22.30;99.90;;;;;;5054747;28;19932;-82
2022/09/21 13:25:47;;;;;;;;;;;22.10;99.90;;;;;;5059941;28;20500;-82
2022/09/21 13:28:22;;;;;;;;;;;22.10;99.90;;;;;;5060831;28;19929;-82
2022/09/21 13:30:50;;;;;;;;;;;22.10;99.90;;;;;;5070145;28;19925;-82
2022/09/21 13:33:31;;;;;;;;;;;22.20;99.90;;;;;;5077810;28;19928;-82
2022/09/21 13:36:03;;;;;;;;;;;22.20;99.70;;;;;;5078450;28;20319;-81
2022/09/21 13:38:36;;;;;;;;;;;22.10;99.90;;;;;;5076678;28;19924;-80
2022/09/21 13:41:04;;;;;;;;;;;22.10;98.80;;;;;;5069290;28;19951;-80
2022/09/21 13:43:55;;;;;;;;;;;22.20;99.20;;;;;;5061768;28;19935;-82
2022/09/21 13:46:52;;;;;;;;;;;22.20;99.10;;;;;;5063518;28;19924;-81
2022/09/21 13:49:31;;;;;;;;;;;22.30;99.90;;;;;;4979531;28;19936;-81
2022/09/21 13:52:00;;;;;;;;;;;22.40;98.60;;;;;;5053303;28;19924;-81
2022/09/21 13:54:30;;;;;;;;;;;22.30;98.80;;;;;;5081628;28;19939;-81
2022/09/21 13:57:03;;;;;;;;;;;22.20;98.80;;;;;;5065845;28;19932;-81
2022/09/21 13:59:30;;;;;;;;;;;22.40;99.70;;;;;;5056236;28;19933;-81
2022/09/21 14:01:57;;;;;;;;;;;22.70;99.60;;;;;;5057048;28;19991;-81
2022/09/21 14:04:26;;;;;;;;;;;23.00;99.30;;;;;;5056501;28;19955;-81
2022/09/21 14:06:55;;;;;;;;;;;23.20;98.80;;;;;;5056407;28;19974;-82
2022/09/21 14:09:24;;;;;;;;;;;23.40;99.10;;;;;;5060921;28;19995;-82
2022/09/21 14:11:57;;;;;;;;;;;23.60;99.30;;;;;;5060843;28;20405;-81
2022/09/21 14:14:27;;;;;;;;;;;23.80;98.50;;;;;;5068566;28;19973;-82
2022/09/21 14:16:56;;;;;;;;;;;24.00;98.10;;;;;;5069633;28;20126;-81
2022/09/21 14:19:42;;;;;;;;;;;24.00;98.00;;;;;;5056857;28;19929;-82
2022/09/21 14:22:39;;;;;;;;;;;24.10;98.20;;;;;;5064618;28;19954;-81
2022/09/21 14:25:40;;;;;;;;;;;24.10;98.20;;;;;;5030164;28;19929;-82
2022/09/21 14:28:12;;;;;;;;;;;24.10;97.50;;;;;;5055753;28;19986;-82
2022/09/21 14:30:40;;;;;;;;;;;24.00;96.20;;;;;;5069651;28;19928;-82
2022/09/21 14:33:12;;;;;;;;;;;23.60;95.70;;;;;;5065313;28;20500;-83
2022/09/21 14:35:44;;;;;;;;;;;23.10;95.20;;;;;;5086058;28;19928;-82
2022/09/21 14:38:14;;;;;;;;;;;22.50;96.20;;;;;;5071826;28;19960;-82
2022/09/21 14:40:46;;;;;;;;;;;22.50;96.20;;;;;;5064903;28;19932;-82
2022/09/21 14:43:17;;;;;;;;;;;22.50;96.70;;;;;;5092844;28;20024;-83
2022/09/21 14:45:54;;;;;;;;;;;22.50;96.80;;;;;;5074718;28;19935;-82